Terminal Aerodrome Forecast
Issued by NWS

Home | Current Version | Previous Version | Graphics & Text | Print | Product List | Glossary On
Versions: 1 2 3 4 5 6 7 8 9 10 11 12 13 14 15 16 17
000
FTUS43 KBIS 250700 AAA
TAFJMS
TAF AMD
KJMS 250714Z 2507/2606 11009KT P6SM VCSH SCT030
     FM250900 35008KT P6SM SCT020 SCT030
     FM251100 32009KT P6SM BKN030
     FM251500 31015KT P6SM SKC
     FM260200 24005KT P6SM SKC=

USA.gov is the U.S. government's official web portal to all federal, state and local government web resources and services.